La Crosse, KS (67548)

3:07 PM CDT on April 18, 2015 (GMT -0500)
Rural Ellis Co. | | Change Station
CLOSE
Current Station
Personal Weather Station
Location: Hays, KS
Elevation: 2077 ft
Nearby Weather Stations
Active Advisory: Severe Thunderstorm Watch

Elev 2077 ft 38.81 °N, 99.37 °W | Updated 9 minutes ago

Clear
Clear
75.4 °F
Feels Like 78 °F
N
0.0
Wind Variable Wind from SSE

Today
High -- | Low -- °F
--% Chance of Precip.
Yesterday
High -- | Low -- °F
Precip. -- in
6:57 AM 8:16 PM
New Moon, 0% visible
Pressure 29.79 in
Visibility 10.0 miles
Clouds Scattered Clouds 4700 ft
Heat Index 78 °F
Dew Point 56 °F
Humidity 50%
Rainfall 0.04 in
Snow Depth Not available.
UV 8 out of 12
Pollen 11.00 out of 12
Air Quality Not available.
Flu Activity Sporadic
METAR KHYS 181955Z 19009KT 10SM SCT047 22/09 A2979 RMK AO1

More Conditions Fewer Conditions

Pressure 29.79 in
Visibility 10.0 miles
Clouds Scattered Clouds 4700 ft
Heat Index 78 °F
Dew Point 56 °F
Humidity 50%
Rainfall 0.04 in
Snow Depth Not available.
UV 8 out of 12
Pollen 11.00 out of 12
Air Quality Not available.
Flu Activity Sporadic
METAR KHYS 181955Z 19009KT 10SM SCT047 22/09 A2979 RMK AO1

More Conditions Fewer Conditions

10-Day Weather Forecast

Almanac

Astronomy

Apr. 18, 2015 Rise Set
Actual Time
Civil Twilight
Nautical Twilight
Astronomical Twilight
Moon
Length of Visible Light
Length of Day
Tomorrow will be .
, % of the Moon is Illuminated

Today's Extremes

State Highs State Lows

Community

WunderPhotos

Upload Photos

1,814,513 photos uploaded!

WunderBlogs® & News

Nearby

Air Quality

  Air Quality AQ Index Pollutant
Not available.

Snow Depth

Station Depth Elevation

Earthquake Activity

City Distance Mag. Time & Date
Minimum magnitude displayed is 2.5.

Coastal Water Temperatures

Place Temperature

Stations

Nearby Weather Stations

Station Location Temp. Windchill Dew Point Humidity Wind Precip. Elev Updated Type
                   
Severe Thunderstorm Watch
Statement as of 3:03 PM CDT on April 18, 2015

Severe Thunderstorm Watch 74 remains in effect until 900 PM CDT
for the following locations


KS
. Kansas counties included are

Barber Barton Clark
Comanche Edwards Ellis
Ellsworth Ford Harper
Hodgeman Jewell Kingman
Kiowa Lincoln Mitchell
Ness Osborne Pawnee
Phillips Pratt Reno
Rice Rooks rush
Russell Smith Stafford
Trego